KLGA

Laguardia Airport

New York, New York, USA
KLGA 192335Z 2000/2106 15007KT P6SM SCT010 BKN020 FM200300 06007KT P6SM SCT010 BKN015 FM201400 06008KT P6SM BKN030 FM201600 06008KT P6SM SCT040 FM202000 15008KT P6SM SCT040 SCT150
Issued Valid From Valid To
Sep-19 @ 23:35 UTC
(an hour ago)
Sep-20 @ 00:00 UTC
(41 minutes ago)
Sep-21 @ 06:00 UTC
(-1 days ago)
Sep-20 @ 00:00 to Sep-20 @ 03:00
KLGA 192335Z 2000/2106 15007KT P6SM SCT010 BKN020
Wind Visibility Clouds
150° at 7 knots Greater than 6 miles
  • Scattered at 1,000' AGL
  • Broken at 2,000' AGL
From Sep-20 @ 03:00 to Sep-20 @ 14:00
FM200300 06007KT P6SM SCT010 BKN015
Wind Visibility Clouds
60° at 7 knots Greater than 6 miles
  • Scattered at 1,000' AGL
  • Broken at 1,500' AGL
From Sep-20 @ 14:00 to Sep-20 @ 16:00
FM201400 06008KT P6SM BKN030
Wind Visibility Clouds
60° at 8 knots Greater than 6 miles
  • Broken at 3,000' AGL
From Sep-20 @ 16:00 to Sep-20 @ 20:00
FM201600 06008KT P6SM SCT040
Wind Visibility Clouds
60° at 8 knots Greater than 6 miles
  • Scattered at 4,000' AGL
From Sep-20 @ 20:00 to Sep-21 @ 06:00
FM202000 15008KT P6SM SCT040 SCT150
Wind Visibility Clouds
150° at 8 knots Greater than 6 miles
  • Scattered at 4,000' AGL
  • Scattered at 15,000' AGL
KLGA 192335Z 2000/2106 15007KT P6SM SCT010 BKN020 FM200300 06007KT P6SM SCT010 BKN015 FM201400 06008KT P6SM BKN030 FM201600 06008KT P6SM SCT040 FM202000 15008KT P6SM SCT040 SCT150
Issued Sep-19 @ 23:35 UTC
(an hour ago)
Valid From Sep-20 @ 00:00 UTC
(41 minutes ago)
Valid To Sep-21 @ 06:00 UTC
(-1 days ago)
Sep-20 @ 00:00 - Sep-20 @ 03:00
Wind Visibility
150° at 7 knots Greater than 6 miles
Clouds
  • Scattered at 1,000' AGL
  • Broken at 2,000' AGL
From Sep-20 @ 03:00 - Sep-20 @ 14:00
Wind Visibility
60° at 7 knots Greater than 6 miles
Clouds
  • Scattered at 1,000' AGL
  • Broken at 1,500' AGL
From Sep-20 @ 14:00 - Sep-20 @ 16:00
Wind Visibility
60° at 8 knots Greater than 6 miles
Clouds
  • Broken at 3,000' AGL
From Sep-20 @ 16:00 - Sep-20 @ 20:00
Wind Visibility
60° at 8 knots Greater than 6 miles
Clouds
  • Scattered at 4,000' AGL
From Sep-20 @ 20:00 - Sep-21 @ 06:00
Wind Visibility
150° at 8 knots Greater than 6 miles
Clouds
  • Scattered at 4,000' AGL
  • Scattered at 15,000' AGL